SlayerApocalypse666's FFR replays

1 - 50 | 51 - 100 | 101 - 150 | 151 - 200 | 201 - 250 | 251 - 277
Song Results (Perf-Good-Avg-Miss-Boo) Max Combo Score Date
Delirium 1,078 - 0 - 0 - 0 - 0 1,078 1,670,900 6/27/20
Playdoh 985 - 1 - 0 - 0 - 1 986 1,528,005 6/28/19
.357 Magnum 1,404 - 68 - 2 - 2 - 4 889 1,679,310 5/19/19
Ramua 929 - 1 - 0 - 0 - 0 930 1,441,225 12/23/18
Incident Zero 1,389 - 21 - 0 - 0 - 2 1,410 2,179,685 12/15/18
VS Boss Battle 884 - 25 - 0 - 0 - 0 909 1,402,075 10/26/18
Blindfolds Aside 2,535 - 41 - 2 - 0 - 12 2,578 3,983,395 10/26/18
Staring at my Spaceship 2,519 - 22 - 1 - 0 - 1 2,542 3,933,535 10/26/18
Starlight [Macgravel] 704 - 5 - 0 - 0 - 0 709 1,097,575 10/26/18
Szamar Madar 1,093 - 1 - 0 - 0 - 0 1,094 1,695,425 10/26/18
Across Rooftops 2,048 - 108 - 4 - 22 - 11 1,689 2,838,280 10/20/18
Legend 1,135 - 4 - 0 - 0 - 0 1,139 1,764,350 10/13/18
Final Fantasy Last Battle Festival 3,609 - 38 - 1 - 0 - 6 3,648 5,643,335 10/13/18
Guitar Sound 1,193 - 9 - 0 - 0 - 0 1,202 1,860,625 10/13/18
Air 1,927 - 13 - 0 - 0 - 0 1,940 3,003,425 10/13/18
{Rose} 1,299 - 2 - 0 - 0 - 1 1,301 2,015,980 10/13/18
Melted Marble 784 - 1 - 0 - 0 - 0 785 1,216,475 10/12/18
Maelstrom 754 - 4 - 0 - 0 - 0 758 1,173,800 9/29/18
Feelings From the Air 1,074 - 1 - 0 - 0 - 1 1,075 1,665,955 9/29/18
Banned Forever 1,981 - 42 - 0 - 0 - 5 2,023 3,124,000 9/8/18
Balloon Fever 963 - 7 - 0 - 0 - 0 970 1,501,575 9/8/18
Blue Rose 3,464 - 153 - 2 - 3 - 23 1,507 3,452,995 8/27/18
Across Rooftops 2,039 - 125 - 4 - 24 - 8 1,141 2,289,445 8/27/18
Caelumize [Standard] 773 - 0 - 0 - 0 - 1 773 1,198,130 5/20/18
MAX Forever 2,696 - 13 - 0 - 0 - 0 2,709 4,195,375 5/20/18
Follow You (feat. Danyka Nadeau) (Rhythmics Remix) 848 - 1 - 0 - 0 - 0 849 1,315,675 5/20/18
Powerpuff Gabberz 1,733 - 29 - 0 - 0 - 1 1,762 2,723,105 5/14/18
Red Wings Over Baron 4,115 - 159 - 28 - 10 - 36 2,601 4,905,695 5/1/18
Temple [Shnabubula] 2,182 - 36 - 1 - 0 - 2 2,219 3,429,015 4/29/18
Red Wings Over Baron 4,063 - 215 - 26 - 8 - 33 1,562 3,854,065 4/29/18
Aggressor 2,631 - 270 - 13 - 8 - 16 886 2,405,215 4/29/18
Temple [Shnabubula] 2,174 - 41 - 3 - 1 - 4 1,474 2,680,750 4/29/18
Violet Rose 3,742 - 188 - 3 - 11 - 22 1,252 3,358,115 4/29/18
Violet Rose 3,742 - 188 - 3 - 11 - 22 1,252 3,358,115 4/29/18
Duality 1,042 - 4 - 0 - 0 - 0 1,046 1,620,200 4/29/18
going on -spring wind- 1,176 - 15 - 0 - 0 - 1 1,191 1,841,905 4/27/18
Epidermis 1,255 - 21 - 0 - 1 - 1 731 1,426,695 4/27/18
Drive of Unliving Things 1,465 - 12 - 0 - 1 - 0 1,413 2,221,740 4/27/18
Dark World 1,211 - 15 - 0 - 0 - 0 1,226 1,896,175 4/27/18
Choprite [Heavy] 1,784 - 12 - 0 - 0 - 1 1,796 2,780,480 4/27/18
Indignant Divinity 617 - 3 - 0 - 0 - 0 620 960,175 4/25/18
Animus Intorqueo No. 3 857 - 0 - 0 - 0 - 0 857 1,328,350 4/24/18
The Whip 1,279 - 3 - 0 - 1 - 0 1,158 1,861,965 4/24/18
Across Rooftops 2,107 - 137 - 10 - 0 - 12 2,254 3,450,835 4/23/18
DubstEpic Symphony 813 - 6 - 1 - 0 - 2 820 1,268,815 4/23/18
{Evolution} Out Stage 864 - 6 - 1 - 0 - 0 871 1,347,905 4/23/18
Fall Memories 827 - 0 - 0 - 1 - 0 493 947,540 4/23/18
Coat Czech 670 - 0 - 0 - 0 - 0 670 1,038,500 4/23/18
Force of Light 1,074 - 0 - 0 - 0 - 2 1,074 1,664,660 4/21/18
MAX Forever 2,696 - 13 - 0 - 0 - 2 2,709 4,195,335 4/21/18



SlayerApocalypse666's R^3 replays

1 - 3
Song Results (Perf-Good-Avg-Miss-Boo) Max Combo Score Date
Fall Memories 817 - 10 - 1 - 0 - 1 828 1,280,135 4/8/18
Aletheia 1,931 - 191 - 8 - 31 - 27 682 1,786,865 4/8/18
Aletheia 520 - 14 - 4 - 23 - 3 416 698,880 3/1/14
1 - 3